createdAt,value
2016-10-28T00:03:24.267Z,88.3
2016-10-28T00:08:24.215Z,88.59
2016-10-28T00:13:24.168Z,88.2
2016-10-28T00:18:24.112Z,88.78
2016-10-28T00:23:24.062Z,88.68
2016-10-28T00:28:24.003Z,88.78
2016-10-28T00:33:23.946Z,88.39
2016-10-28T00:38:23.898Z,88.59
2016-10-28T00:43:23.850Z,88.1
2016-10-28T00:48:23.796Z,88.39
2016-10-28T00:53:23.747Z,88.39
2016-10-28T00:58:23.396Z,88.39
2016-10-28T01:03:23.648Z,88.49
2016-10-28T01:08:23.594Z,88.49
2016-10-28T01:13:23.544Z,88.39
2016-10-28T01:18:23.187Z,88.1
2016-10-28T01:23:23.440Z,88.49
2016-10-28T01:28:23.428Z,88.78
2016-10-28T01:33:23.341Z,88.78
2016-10-28T01:38:23.287Z,88.68
2016-10-28T01:43:23.237Z,88.78
2016-10-28T01:48:22.882Z,88.59
2016-10-28T01:53:23.131Z,88.49
2016-10-28T01:58:23.079Z,88.49
2016-10-28T02:03:23.067Z,88.39
2016-10-28T02:08:22.974Z,88.64
2016-10-28T02:13:22.930Z,88.35
2016-10-28T02:18:22.872Z,88.73
2016-10-28T02:23:22.820Z,88.49
2016-10-28T02:28:22.771Z,88.39
2016-10-28T02:33:22.717Z,88.35
2016-10-28T02:38:22.662Z,88.45
2016-10-28T02:43:22.309Z,88.45
2016-10-28T02:48:22.566Z,88.45
2016-10-28T02:53:22.511Z,88.35
2016-10-28T02:58:22.162Z,88.25
2016-10-28T03:03:22.406Z,88.35
2016-10-28T03:08:22.355Z,88.64
2016-10-28T03:13:22.310Z,88.45
2016-10-28T03:18:22.250Z,88.54
2016-10-28T03:23:22.199Z,88.45
2016-10-28T03:28:22.159Z,88.64
2016-10-28T03:33:22.094Z,88.54
2016-10-28T03:38:22.045Z,88.73
2016-10-28T03:43:21.998Z,88.73
2016-10-28T03:48:21.948Z,88.64
2016-10-28T03:53:21.896Z,88.93
2016-10-28T03:58:21.837Z,88.83
2016-10-28T04:03:21.787Z,88.73
2016-10-28T04:08:21.741Z,88.83
2016-10-28T04:13:21.688Z,88.83
2016-10-28T04:18:21.633Z,88.83
2016-10-28T04:23:21.580Z,89.22
2016-10-28T04:28:21.218Z,89.22
2016-10-28T04:33:21.478Z,89.02
2016-10-28T04:38:21.422Z,89.02
2016-10-28T04:43:21.370Z,89.02
2016-10-28T04:48:21.321Z,89.22
2016-10-28T04:53:21.266Z,88.83
2016-10-28T04:58:20.906Z,89.12
2016-10-28T05:03:21.156Z,89.22
2016-10-28T05:08:21.106Z,89.02
2016-10-28T05:13:21.051Z,89.12
2016-10-28T05:18:21.008Z,89.22
2016-10-28T05:23:20.945Z,89.02
2016-10-28T05:28:20.890Z,89.31
2016-10-28T05:33:20.838Z,89.5
2016-10-28T05:38:20.783Z,89.6
2016-10-28T05:43:20.730Z,89.5
2016-10-28T05:48:20.374Z,89.6
2016-10-28T05:53:20.629Z,89.79
2016-10-28T05:58:20.567Z,89.4
2016-10-28T06:03:20.517Z,89.6
2016-10-28T06:08:20.466Z,89.22
2016-10-28T06:13:20.404Z,89.5
2016-10-28T06:18:20.052Z,89.4
2016-10-28T06:23:20.300Z,89.31
2016-10-28T06:28:19.942Z,89.6
2016-10-28T06:33:20.191Z,90.17
2016-10-28T06:38:19.837Z,89.4
2016-10-28T06:43:20.083Z,89.4
2016-10-28T06:48:20.031Z,89.22
2016-10-28T06:53:19.977Z,89.02
2016-10-28T06:58:19.920Z,89.02
2016-10-28T07:03:19.866Z,89.02
2016-10-28T07:08:19.812Z,89.16
2016-10-28T07:13:19.452Z,89.26
2016-10-28T07:18:19.702Z,89.26
2016-10-28T07:23:19.650Z,89.26
2016-10-28T07:28:19.289Z,89.36
2016-10-28T07:33:19.240Z,89.36
2016-10-28T07:38:19.499Z,89.83
2016-10-28T07:43:19.437Z,88.87
2016-10-28T07:48:19.383Z,89.36
2016-10-28T07:53:19.332Z,89.83
2016-10-28T07:58:19.276Z,89.78
2016-10-28T08:03:19.227Z,90.07
2016-10-28T08:08:19.179Z,89.88
2016-10-28T08:13:19.136Z,90.65
2016-10-28T08:18:19.072Z,90.17
2016-10-28T08:23:19.020Z,90.26
2016-10-28T08:28:18.670Z,90.26
2016-10-28T08:33:18.928Z,90.26
2016-10-28T08:38:18.878Z,90.55
2016-10-28T08:43:18.514Z,89.5
2016-10-28T08:48:18.768Z,89.69
2016-10-28T08:53:18.722Z,89.78
2016-10-28T08:58:18.678Z,89.98
2016-10-28T09:03:18.620Z,90.07
2016-10-28T09:08:18.272Z,90.26
2016-10-28T09:13:18.521Z,90.17
2016-10-28T09:18:18.470Z,89.88
2016-10-28T09:23:18.420Z,90.17
2016-10-28T09:28:18.369Z,90.36
2016-10-28T09:33:18.342Z,90.55
2016-10-28T09:38:18.268Z,90.07
2016-10-28T09:43:18.225Z,89.78
2016-10-28T09:48:18.172Z,90.36
2016-10-28T09:53:18.120Z,91.03
2016-10-28T09:58:18.071Z,90.75
2016-10-28T10:03:18.027Z,90.65
2016-10-28T10:08:17.673Z,90.55
2016-10-28T10:13:17.927Z,90.84
2016-10-28T10:18:17.883Z,90.75
2016-10-28T10:23:17.835Z,90.84
2016-10-28T10:28:17.783Z,91.13
2016-10-28T10:33:17.427Z,91.32
2016-10-28T10:38:17.391Z,91.32
2016-10-28T10:43:17.637Z,90.84
2016-10-28T10:48:17.282Z,91.13
2016-10-28T10:53:17.232Z,91.32
2016-10-28T10:58:17.182Z,91.03
2016-10-28T11:03:17.138Z,90.8
2016-10-28T11:08:17.088Z,90.8
2016-10-28T11:13:17.348Z,91.13
2016-10-28T11:18:17.302Z,91.18
2016-10-28T11:23:17.248Z,91.71
2016-10-28T11:28:16.894Z,91.66
2016-10-28T11:33:17.148Z,92.19
2016-10-28T11:38:16.792Z,92.19
2016-10-28T11:43:17.046Z,92.19
2016-10-28T11:48:17.000Z,92.47
2016-10-28T11:53:16.644Z,92.24
2016-10-28T11:58:16.591Z,92.43
2016-10-28T12:03:16.863Z,92.09
2016-10-28T12:08:16.798Z,92.96
2016-10-28T12:13:16.450Z,93.24
2016-10-28T12:18:16.698Z,92.47
2016-10-28T12:23:16.652Z,92.24
2016-10-28T12:28:16.615Z,92.43
2016-10-28T12:33:16.561Z,92.14
2016-10-28T12:38:16.207Z,92.33
2016-10-28T12:43:16.461Z,92.29
2016-10-28T12:48:16.408Z,91.85
2016-10-28T12:53:16.362Z,92.14
2016-10-28T12:58:16.312Z,92.24
2016-10-28T13:03:16.260Z,92.14
2016-10-28T13:08:15.904Z,92.14
2016-10-28T13:13:15.858Z,92.05
2016-10-28T13:18:16.108Z,92.43
2016-10-28T13:23:15.755Z,91.75
2016-10-28T13:28:16.019Z,92.14
2016-10-28T13:33:15.969Z,92.19
2016-10-28T13:38:15.927Z,92.43
2016-10-28T13:43:15.869Z,92.24
2016-10-28T13:48:15.817Z,92.33
2016-10-28T13:53:15.765Z,91.99
2016-10-28T13:58:15.722Z,91.95
2016-10-28T14:03:15.672Z,92.24
2016-10-28T14:08:15.625Z,92.43
2016-10-28T14:13:15.572Z,92.91
2016-10-28T14:18:15.526Z,92.43
2016-10-28T14:23:15.470Z,92.62
2016-10-28T14:28:15.428Z,92.43
2016-10-28T14:33:15.392Z,92.33
2016-10-28T14:38:15.019Z,92.81
2016-10-28T14:43:14.967Z,92.62
2016-10-28T14:48:15.218Z,92.43
2016-10-28T14:53:15.182Z,92.52
2016-10-28T14:58:15.116Z,93.01
2016-10-28T15:03:15.079Z,92.91
2016-10-28T15:08:15.077Z,92.91
2016-10-28T15:13:15.009Z,92.72
2016-10-28T15:18:14.944Z,92.43
2016-10-28T15:23:14.922Z,92.91
2016-10-28T15:28:14.521Z,92.91
2016-10-28T15:33:14.464Z,92.81
2016-10-28T15:38:14.718Z,92.72
2016-10-28T15:43:14.670Z,92.52
2016-10-28T15:48:14.616Z,92.24
2016-10-28T15:53:14.570Z,92.19
2016-10-28T15:58:14.220Z,92.14
2016-10-28T16:03:14.476Z,92.09
2016-10-28T16:08:14.420Z,93.05
2016-10-28T16:13:14.415Z,93.91
2016-10-28T16:18:14.322Z,93.63
2016-10-28T16:23:14.278Z,93.05
2016-10-28T16:28:14.239Z,92.47
2016-10-28T16:33:13.869Z,92.19
2016-10-28T16:38:14.133Z,91.99
2016-10-28T16:43:14.094Z,92.19
2016-10-28T16:48:14.058Z,92.19
2016-10-28T16:53:13.996Z,92.05
2016-10-28T16:58:13.962Z,92.24
2016-10-28T17:03:13.902Z,92.86
2016-10-28T17:08:13.864Z,93.58
2016-10-28T17:13:13.790Z,93.73
2016-10-28T17:18:13.758Z,93.44
2016-10-28T17:23:13.702Z,92.76
2016-10-28T17:28:13.650Z,92.19
2016-10-28T17:33:13.592Z,91.85
2016-10-28T17:38:13.537Z,91.17
2016-10-28T17:43:13.203Z,91.17
2016-10-28T17:48:13.459Z,91.27
2016-10-28T17:53:13.114Z,91.22
2016-10-28T17:58:13.357Z,91.31
2016-10-28T18:03:13.327Z,90.93
2016-10-28T18:08:13.314Z,91.22
2016-10-28T18:13:13.291Z,90.93
2016-10-28T18:18:13.267Z,91.13
2016-10-28T18:23:13.265Z,90.55
2016-10-28T18:28:13.309Z,90.83
2016-10-28T18:33:12.853Z,90.55
2016-10-28T18:38:12.875Z,90.45
2016-10-28T18:43:12.848Z,90.35
2016-10-28T18:48:13.223Z,90.06
2016-10-28T18:53:12.786Z,89.97
2016-10-28T18:58:13.152Z,89.68
2016-10-28T19:03:13.108Z,89.78
2016-10-28T19:08:12.658Z,89.49
2016-10-28T19:13:13.018Z,89.97
2016-10-28T19:18:12.964Z,90.06
2016-10-28T19:23:12.915Z,89.68
2016-10-28T19:28:12.465Z,90.45
2016-10-28T19:33:12.423Z,90.06
2016-10-28T19:38:12.753Z,89.97
2016-10-28T19:43:12.748Z,90.26
2016-10-28T19:48:12.687Z,90.06
2016-10-28T19:53:12.626Z,89.58
2016-10-28T19:58:12.578Z,90.26
2016-10-28T20:03:12.512Z,89.68
2016-10-28T20:08:12.471Z,90.26
2016-10-28T20:13:12.504Z,89.97
2016-10-28T20:18:12.022Z,90.45
2016-10-28T20:23:12.338Z,89.97
2016-10-28T20:28:12.314Z,89.97
2016-10-28T20:33:12.252Z,90.16
2016-10-28T20:38:12.218Z,89.97
2016-10-28T20:43:12.182Z,90.06
2016-10-28T20:48:12.144Z,90.26
2016-10-28T20:53:11.652Z,90.06
2016-10-28T20:58:12.026Z,89.97
2016-10-28T21:03:11.960Z,89.68
2016-10-28T21:08:11.446Z,90.35
2016-10-28T21:13:11.553Z,89.97
2016-10-28T21:18:11.520Z,89.68
2016-10-28T21:23:11.467Z,88.53
2016-10-28T21:28:11.420Z,88.62
2016-10-28T21:33:11.374Z,88.71
2016-10-28T21:38:11.334Z,88.53
2016-10-28T21:43:11.284Z,88.71
2016-10-28T21:48:11.234Z,89.29
2016-10-28T21:53:11.199Z,89.49
2016-10-28T21:58:11.144Z,89.2
2016-10-28T22:03:10.795Z,89.73
2016-10-28T22:08:11.049Z,88.96
2016-10-28T22:13:11.007Z,89.44
2016-10-28T22:18:11.013Z,89.35
2016-10-28T22:23:10.905Z,89.01
2016-10-28T22:28:10.925Z,89.4
2016-10-28T22:33:10.817Z,89.3
2016-10-28T22:38:10.769Z,89.3
2016-10-28T22:43:10.716Z,89.11
2016-10-28T22:48:10.665Z,89.21
2016-10-28T22:53:10.616Z,88.92
2016-10-28T22:58:10.265Z,89.4
2016-10-28T23:03:10.521Z,89.01
2016-10-28T23:08:10.472Z,89.07
2016-10-28T23:13:10.415Z,88.97
2016-10-28T23:18:10.366Z,88.97
2016-10-28T23:23:10.315Z,89.07
2016-10-28T23:28:09.969Z,88.68
2016-10-28T23:33:10.228Z,88.59
2016-10-28T23:38:09.873Z,88.78
2016-10-28T23:43:10.151Z,88.39
2016-10-28T23:48:10.070Z,88.49
2016-10-28T23:53:10.016Z,88.49
2016-10-28T23:58:09.662Z,88.3
